sensor_id;sensor_type;location;lat;lon;timestamp;P1;durP1;ratioP1;P2;durP2;ratioP2
17369;SDS011;8802;52.402;4.920;2023-03-11T00:02:14;2.85;;;0.95;;
17369;SDS011;8802;52.402;4.920;2023-03-11T00:04:41;1.95;;;0.90;;
17369;SDS011;8802;52.402;4.920;2023-03-11T00:07:09;1.50;;;0.68;;
17369;SDS011;8802;52.402;4.920;2023-03-11T00:09:36;1.83;;;0.80;;
17369;SDS011;8802;52.402;4.920;2023-03-11T00:12:04;4.13;;;0.85;;
17369;SDS011;8802;52.402;4.920;2023-03-11T00:16:59;2.25;;;0.90;;
17369;SDS011;8802;52.402;4.920;2023-03-11T00:19:26;5.35;;;0.95;;
17369;SDS011;8802;52.402;4.920;2023-03-11T00:21:53;1.77;;;0.68;;
17369;SDS011;8802;52.402;4.920;2023-03-11T00:24:19;2.10;;;0.90;;
17369;SDS011;8802;52.402;4.920;2023-03-11T00:26:46;4.13;;;0.70;;
17369;SDS011;8802;52.402;4.920;2023-03-11T00:29:13;1.63;;;0.75;;
17369;SDS011;8802;52.402;4.920;2023-03-11T00:31:40;5.35;;;0.98;;
17369;SDS011;8802;52.402;4.920;2023-03-11T00:34:08;4.20;;;1.05;;
17369;SDS011;8802;52.402;4.920;2023-03-11T00:36:35;2.47;;;0.75;;
17369;SDS011;8802;52.402;4.920;2023-03-11T00:39:03;2.10;;;0.63;;
17369;SDS011;8802;52.402;4.920;2023-03-11T00:41:31;1.33;;;0.82;;
17369;SDS011;8802;52.402;4.920;2023-03-11T00:43:58;4.30;;;0.85;;
17369;SDS011;8802;52.402;4.920;2023-03-11T00:46:25;2.35;;;0.70;;
17369;SDS011;8802;52.402;4.920;2023-03-11T00:48:55;2.13;;;0.80;;
17369;SDS011;8802;52.402;4.920;2023-03-11T00:51:23;1.25;;;0.73;;
17369;SDS011;8802;52.402;4.920;2023-03-11T00:53:50;2.38;;;0.90;;
17369;SDS011;8802;52.402;4.920;2023-03-11T00:56:17;1.85;;;0.95;;
17369;SDS011;8802;52.402;4.920;2023-03-11T00:58:44;2.10;;;0.73;;
17369;SDS011;8802;52.402;4.920;2023-03-11T01:01:12;2.63;;;0.50;;
17369;SDS011;8802;52.402;4.920;2023-03-11T01:03:40;1.63;;;0.73;;
17369;SDS011;8802;52.402;4.920;2023-03-11T01:06:08;1.27;;;0.60;;
17369;SDS011;8802;52.402;4.920;2023-03-11T01:08:36;1.27;;;0.65;;
17369;SDS011;8802;52.402;4.920;2023-03-11T01:11:04;6.57;;;0.80;;
17369;SDS011;8802;52.402;4.920;2023-03-11T01:13:32;2.53;;;0.60;;
17369;SDS011;8802;52.402;4.920;2023-03-11T01:15:59;2.75;;;0.50;;
17369;SDS011;8802;52.402;4.920;2023-03-11T01:18:26;3.63;;;0.73;;
17369;SDS011;8802;52.402;4.920;2023-03-11T01:20:54;3.13;;;0.80;;
17369;SDS011;8802;52.402;4.920;2023-03-11T01:23:20;3.70;;;0.80;;
17369;SDS011;8802;52.402;4.920;2023-03-11T01:25:49;3.70;;;0.73;;
17369;SDS011;8802;52.402;4.920;2023-03-11T01:28:16;3.90;;;0.60;;
17369;SDS011;8802;52.402;4.920;2023-03-11T01:30:43;3.33;;;0.60;;
17369;SDS011;8802;52.402;4.920;2023-03-11T01:33:13;4.32;;;0.60;;
17369;SDS011;8802;52.402;4.920;2023-03-11T01:35:40;1.10;;;0.55;;
17369;SDS011;8802;52.402;4.920;2023-03-11T01:38:08;3.00;;;0.68;;
17369;SDS011;8802;52.402;4.920;2023-03-11T01:40:35;2.85;;;0.90;;
17369;SDS011;8802;52.402;4.920;2023-03-11T01:43:06;1.90;;;0.80;;
17369;SDS011;8802;52.402;4.920;2023-03-11T01:46:18;2.20;;;0.60;;
17369;SDS011;8802;52.402;4.920;2023-03-11T01:48:47;0.70;;;0.50;;
17369;SDS011;8802;52.402;4.920;2023-03-11T01:51:15;3.90;;;0.80;;
17369;SDS011;8802;52.402;4.920;2023-03-11T01:53:44;4.75;;;0.80;;
17369;SDS011;8802;52.402;4.920;2023-03-11T01:56:11;3.55;;;0.90;;
17369;SDS011;8802;52.402;4.920;2023-03-11T01:58:40;2.20;;;0.68;;
17369;SDS011;8802;52.402;4.920;2023-03-11T02:01:09;3.58;;;0.93;;
17369;SDS011;8802;52.402;4.920;2023-03-11T02:03:39;1.83;;;0.50;;
17369;SDS011;8802;52.402;4.920;2023-03-11T02:06:07;1.55;;;0.60;;
17369;SDS011;8802;52.402;4.920;2023-03-11T02:08:37;1.35;;;0.50;;
17369;SDS011;8802;52.402;4.920;2023-03-11T02:11:05;1.90;;;0.65;;
17369;SDS011;8802;52.402;4.920;2023-03-11T02:13:34;1.80;;;0.55;;
17369;SDS011;8802;52.402;4.920;2023-03-11T02:16:02;3.95;;;0.60;;
17369;SDS011;8802;52.402;4.920;2023-03-11T02:18:30;2.13;;;0.47;;
17369;SDS011;8802;52.402;4.920;2023-03-11T02:21:00;2.58;;;0.70;;
17369;SDS011;8802;52.402;4.920;2023-03-11T02:23:34;4.80;;;0.52;;
17369;SDS011;8802;52.402;4.920;2023-03-11T02:26:10;1.27;;;0.55;;
17369;SDS011;8802;52.402;4.920;2023-03-11T02:28:43;2.08;;;0.70;;
17369;SDS011;8802;52.402;4.920;2023-03-11T02:31:13;3.60;;;0.77;;
17369;SDS011;8802;52.402;4.920;2023-03-11T02:33:40;2.95;;;0.77;;
17369;SDS011;8802;52.402;4.920;2023-03-11T02:39:01;3.45;;;0.68;;
17369;SDS011;8802;52.402;4.920;2023-03-11T02:41:27;2.10;;;0.70;;
17369;SDS011;8802;52.402;4.920;2023-03-11T02:43:57;3.10;;;0.60;;
17369;SDS011;8802;52.402;4.920;2023-03-11T02:46:26;1.27;;;0.50;;
17369;SDS011;8802;52.402;4.920;2023-03-11T02:48:53;2.72;;;0.80;;
17369;SDS011;8802;52.402;4.920;2023-03-11T02:51:21;3.67;;;0.70;;
17369;SDS011;8802;52.402;4.920;2023-03-11T02:53:48;2.20;;;0.70;;
17369;SDS011;8802;52.402;4.920;2023-03-11T02:56:17;2.95;;;0.75;;
17369;SDS011;8802;52.402;4.920;2023-03-11T02:58:44;2.60;;;0.63;;
17369;SDS011;8802;52.402;4.920;2023-03-11T03:01:13;2.63;;;0.80;;
17369;SDS011;8802;52.402;4.920;2023-03-11T03:03:40;1.65;;;0.68;;
17369;SDS011;8802;52.402;4.920;2023-03-11T03:06:07;5.30;;;0.60;;
17369;SDS011;8802;52.402;4.920;2023-03-11T03:08:34;1.40;;;0.65;;
17369;SDS011;8802;52.402;4.920;2023-03-11T03:11:01;2.00;;;0.50;;
17369;SDS011;8802;52.402;4.920;2023-03-11T03:13:28;2.60;;;0.75;;
17369;SDS011;8802;52.402;4.920;2023-03-11T03:15:56;3.17;;;0.63;;
17369;SDS011;8802;52.402;4.920;2023-03-11T03:18:24;2.90;;;0.63;;
17369;SDS011;8802;52.402;4.920;2023-03-11T03:20:51;1.52;;;0.43;;
17369;SDS011;8802;52.402;4.920;2023-03-11T03:23:18;2.00;;;0.60;;
17369;SDS011;8802;52.402;4.920;2023-03-11T03:25:45;2.83;;;0.98;;
17369;SDS011;8802;52.402;4.920;2023-03-11T03:28:12;1.80;;;0.63;;
17369;SDS011;8802;52.402;4.920;2023-03-11T03:30:39;1.73;;;0.60;;
17369;SDS011;8802;52.402;4.920;2023-03-11T03:33:06;2.42;;;0.52;;
17369;SDS011;8802;52.402;4.920;2023-03-11T03:35:38;1.80;;;0.52;;
17369;SDS011;8802;52.402;4.920;2023-03-11T03:38:06;1.42;;;0.47;;
17369;SDS011;8802;52.402;4.920;2023-03-11T03:40:33;1.80;;;0.50;;
17369;SDS011;8802;52.402;4.920;2023-03-11T03:43:00;1.10;;;0.65;;
17369;SDS011;8802;52.402;4.920;2023-03-11T03:45:27;2.80;;;0.60;;
17369;SDS011;8802;52.402;4.920;2023-03-11T03:47:54;2.60;;;0.50;;
17369;SDS011;8802;52.402;4.920;2023-03-11T03:50:21;3.58;;;0.75;;
17369;SDS011;8802;52.402;4.920;2023-03-11T03:52:49;2.83;;;0.80;;
17369;SDS011;8802;52.402;4.920;2023-03-11T03:55:16;2.63;;;0.50;;
17369;SDS011;8802;52.402;4.920;2023-03-11T03:57:43;1.52;;;0.52;;
17369;SDS011;8802;52.402;4.920;2023-03-11T04:00:10;2.08;;;0.93;;
17369;SDS011;8802;52.402;4.920;2023-03-11T04:02:37;1.50;;;0.50;;
17369;SDS011;8802;52.402;4.920;2023-03-11T04:05:05;0.90;;;0.50;;
17369;SDS011;8802;52.402;4.920;2023-03-11T04:07:32;3.20;;;0.52;;
17369;SDS011;8802;52.402;4.920;2023-03-11T04:10:01;0.77;;;0.32;;
17369;SDS011;8802;52.402;4.920;2023-03-11T04:12:28;1.27;;;0.50;;
17369;SDS011;8802;52.402;4.920;2023-03-11T04:14:55;2.28;;;0.70;;
17369;SDS011;8802;52.402;4.920;2023-03-11T04:17:22;3.30;;;0.40;;
17369;SDS011;8802;52.402;4.920;2023-03-11T04:19:49;1.55;;;0.68;;
17369;SDS011;8802;52.402;4.920;2023-03-11T04:22:16;3.35;;;0.55;;
17369;SDS011;8802;52.402;4.920;2023-03-11T04:24:42;1.85;;;0.40;;
17369;SDS011;8802;52.402;4.920;2023-03-11T04:27:10;1.48;;;0.60;;
17369;SDS011;8802;52.402;4.920;2023-03-11T04:29:37;1.10;;;0.57;;
17369;SDS011;8802;52.402;4.920;2023-03-11T04:32:04;1.42;;;0.45;;
17369;SDS011;8802;52.402;4.920;2023-03-11T04:34:32;1.60;;;0.60;;
17369;SDS011;8802;52.402;4.920;2023-03-11T04:36:58;1.77;;;0.30;;
17369;SDS011;8802;52.402;4.920;2023-03-11T04:39:25;1.67;;;0.50;;
17369;SDS011;8802;52.402;4.920;2023-03-11T04:41:52;1.48;;;0.73;;
17369;SDS011;8802;52.402;4.920;2023-03-11T04:44:20;1.10;;;0.57;;
17369;SDS011;8802;52.402;4.920;2023-03-11T04:46:47;1.75;;;0.50;;
17369;SDS011;8802;52.402;4.920;2023-03-11T04:49:14;4.32;;;0.50;;
17369;SDS011;8802;52.402;4.920;2023-03-11T04:51:41;1.95;;;0.70;;
17369;SDS011;8802;52.402;4.920;2023-03-11T04:54:08;2.78;;;0.88;;
17369;SDS011;8802;52.402;4.920;2023-03-11T04:56:35;2.25;;;0.50;;
17369;SDS011;8802;52.402;4.920;2023-03-11T04:59:02;1.10;;;0.40;;
17369;SDS011;8802;52.402;4.920;2023-03-11T05:01:30;1.02;;;0.70;;
17369;SDS011;8802;52.402;4.920;2023-03-11T05:03:57;2.35;;;0.45;;
17369;SDS011;8802;52.402;4.920;2023-03-11T05:06:23;0.98;;;0.40;;
17369;SDS011;8802;52.402;4.920;2023-03-11T05:08:50;3.40;;;0.70;;
17369;SDS011;8802;52.402;4.920;2023-03-11T05:11:17;2.20;;;0.60;;
17369;SDS011;8802;52.402;4.920;2023-03-11T05:13:44;2.85;;;0.77;;
17369;SDS011;8802;52.402;4.920;2023-03-11T05:16:11;1.10;;;0.40;;
17369;SDS011;8802;52.402;4.920;2023-03-11T05:18:39;0.60;;;0.50;;
17369;SDS011;8802;52.402;4.920;2023-03-11T05:21:06;1.35;;;0.68;;
17369;SDS011;8802;52.402;4.920;2023-03-11T05:23:33;3.33;;;0.68;;
17369;SDS011;8802;52.402;4.920;2023-03-11T05:26:00;1.33;;;0.47;;
17369;SDS011;8802;52.402;4.920;2023-03-11T05:28:27;1.73;;;0.70;;
17369;SDS011;8802;52.402;4.920;2023-03-11T05:30:54;0.77;;;0.45;;
17369;SDS011;8802;52.402;4.920;2023-03-11T05:33:21;1.00;;;0.40;;
17369;SDS011;8802;52.402;4.920;2023-03-11T05:35:49;1.90;;;0.50;;
17369;SDS011;8802;52.402;4.920;2023-03-11T05:38:16;2.97;;;0.75;;
17369;SDS011;8802;52.402;4.920;2023-03-11T05:40:43;1.73;;;0.63;;
17369;SDS011;8802;52.402;4.920;2023-03-11T05:43:10;1.88;;;0.50;;
17369;SDS011;8802;52.402;4.920;2023-03-11T05:45:36;1.50;;;0.50;;
17369;SDS011;8802;52.402;4.920;2023-03-11T05:48:03;1.35;;;0.60;;
17369;SDS011;8802;52.402;4.920;2023-03-11T05:50:30;1.08;;;0.55;;
17369;SDS011;8802;52.402;4.920;2023-03-11T05:52:59;2.03;;;0.38;;
17369;SDS011;8802;52.402;4.920;2023-03-11T05:55:25;3.33;;;0.60;;
17369;SDS011;8802;52.402;4.920;2023-03-11T05:57:52;0.98;;;0.50;;
17369;SDS011;8802;52.402;4.920;2023-03-11T06:00:19;2.20;;;1.10;;
17369;SDS011;8802;52.402;4.920;2023-03-11T06:02:47;1.45;;;0.95;;
17369;SDS011;8802;52.402;4.920;2023-03-11T06:05:14;1.00;;;0.57;;
17369;SDS011;8802;52.402;4.920;2023-03-11T06:07:41;1.20;;;0.63;;
17369;SDS011;8802;52.402;4.920;2023-03-11T06:10:10;1.10;;;0.70;;
17369;SDS011;8802;52.402;4.920;2023-03-11T06:12:37;3.90;;;0.80;;
17369;SDS011;8802;52.402;4.920;2023-03-11T06:15:05;3.63;;;0.50;;
17369;SDS011;8802;52.402;4.920;2023-03-11T06:17:34;1.90;;;0.93;;
17369;SDS011;8802;52.402;4.920;2023-03-11T06:20:01;1.50;;;0.77;;
17369;SDS011;8802;52.402;4.920;2023-03-11T06:22:29;0.93;;;0.45;;
17369;SDS011;8802;52.402;4.920;2023-03-11T06:24:56;3.45;;;0.90;;
17369;SDS011;8802;52.402;4.920;2023-03-11T06:27:24;1.88;;;1.08;;
17369;SDS011;8802;52.402;4.920;2023-03-11T06:29:51;3.35;;;1.23;;
17369;SDS011;8802;52.402;4.920;2023-03-11T06:32:19;3.10;;;2.17;;
17369;SDS011;8802;52.402;4.920;2023-03-11T06:34:48;4.18;;;3.25;;
17369;SDS011;8802;52.402;4.920;2023-03-11T06:37:16;4.03;;;2.88;;
17369;SDS011;8802;52.402;4.920;2023-03-11T06:39:45;4.45;;;3.08;;
17369;SDS011;8802;52.402;4.920;2023-03-11T06:42:12;3.60;;;2.78;;
17369;SDS011;8802;52.402;4.920;2023-03-11T06:44:40;4.18;;;2.40;;
17369;SDS011;8802;52.402;4.920;2023-03-11T06:47:07;3.97;;;2.13;;
17369;SDS011;8802;52.402;4.920;2023-03-11T06:49:33;4.65;;;2.38;;
17369;SDS011;8802;52.402;4.920;2023-03-11T06:52:05;5.82;;;2.95;;
17369;SDS011;8802;52.402;4.920;2023-03-11T06:54:32;5.15;;;2.60;;
17369;SDS011;8802;52.402;4.920;2023-03-11T06:56:59;5.82;;;2.63;;
17369;SDS011;8802;52.402;4.920;2023-03-11T06:59:26;2.55;;;2.10;;
17369;SDS011;8802;52.402;4.920;2023-03-11T07:01:54;5.00;;;2.40;;
17369;SDS011;8802;52.402;4.920;2023-03-11T07:04:21;2.67;;;2.05;;
17369;SDS011;8802;52.402;4.920;2023-03-11T07:06:48;5.85;;;2.25;;
17369;SDS011;8802;52.402;4.920;2023-03-11T07:09:15;3.45;;;2.47;;
17369;SDS011;8802;52.402;4.920;2023-03-11T07:11:41;4.22;;;1.90;;
17369;SDS011;8802;52.402;4.920;2023-03-11T07:14:08;2.92;;;1.92;;
17369;SDS011;8802;52.402;4.920;2023-03-11T07:16:37;2.03;;;1.65;;
17369;SDS011;8802;52.402;4.920;2023-03-11T07:19:05;2.97;;;1.80;;
17369;SDS011;8802;52.402;4.920;2023-03-11T07:21:32;2.95;;;1.63;;
17369;SDS011;8802;52.402;4.920;2023-03-11T07:24:00;3.38;;;2.22;;
17369;SDS011;8802;52.402;4.920;2023-03-11T07:26:28;4.13;;;1.63;;
17369;SDS011;8802;52.402;4.920;2023-03-11T07:28:56;2.90;;;1.75;;
17369;SDS011;8802;52.402;4.920;2023-03-11T07:31:23;3.17;;;2.00;;
17369;SDS011;8802;52.402;4.920;2023-03-11T07:33:52;5.65;;;2.05;;
17369;SDS011;8802;52.402;4.920;2023-03-11T07:36:21;4.55;;;1.90;;
17369;SDS011;8802;52.402;4.920;2023-03-11T07:38:53;3.92;;;2.55;;
17369;SDS011;8802;52.402;4.920;2023-03-11T07:41:22;2.88;;;2.15;;
17369;SDS011;8802;52.402;4.920;2023-03-11T07:43:52;3.63;;;2.47;;
17369;SDS011;8802;52.402;4.920;2023-03-11T07:46:20;4.40;;;2.15;;
17369;SDS011;8802;52.402;4.920;2023-03-11T07:48:49;4.35;;;1.83;;
17369;SDS011;8802;52.402;4.920;2023-03-11T07:51:17;5.32;;;2.40;;
17369;SDS011;8802;52.402;4.920;2023-03-11T07:53:47;3.45;;;2.00;;
17369;SDS011;8802;52.402;4.920;2023-03-11T07:56:15;3.72;;;2.03;;
17369;SDS011;8802;52.402;4.920;2023-03-11T07:58:43;5.15;;;2.03;;
17369;SDS011;8802;52.402;4.920;2023-03-11T08:01:10;3.20;;;1.95;;
17369;SDS011;8802;52.402;4.920;2023-03-11T08:03:40;4.85;;;1.90;;
17369;SDS011;8802;52.402;4.920;2023-03-11T08:06:11;4.82;;;2.00;;
17369;SDS011;8802;52.402;4.920;2023-03-11T08:08:38;2.50;;;1.63;;
17369;SDS011;8802;52.402;4.920;2023-03-11T08:11:07;12.30;;;4.50;;
17369;SDS011;8802;52.402;4.920;2023-03-11T08:13:34;5.03;;;1.63;;
17369;SDS011;8802;52.402;4.920;2023-03-11T08:16:01;3.95;;;1.70;;
17369;SDS011;8802;52.402;4.920;2023-03-11T08:18:29;3.47;;;1.90;;
17369;SDS011;8802;52.402;4.920;2023-03-11T08:20:56;4.35;;;2.00;;
17369;SDS011;8802;52.402;4.920;2023-03-11T08:23:23;5.22;;;1.92;;
17369;SDS011;8802;52.402;4.920;2023-03-11T08:25:50;3.15;;;2.17;;
17369;SDS011;8802;52.402;4.920;2023-03-11T08:28:18;4.78;;;2.28;;
17369;SDS011;8802;52.402;4.920;2023-03-11T08:30:45;6.10;;;2.13;;
17369;SDS011;8802;52.402;4.920;2023-03-11T08:33:12;2.22;;;1.73;;
17369;SDS011;8802;52.402;4.920;2023-03-11T08:35:39;3.60;;;1.98;;
17369;SDS011;8802;52.402;4.920;2023-03-11T08:38:06;5.55;;;1.80;;
17369;SDS011;8802;52.402;4.920;2023-03-11T08:40:32;5.93;;;1.92;;
17369;SDS011;8802;52.402;4.920;2023-03-11T08:42:59;3.33;;;1.80;;
17369;SDS011;8802;52.402;4.920;2023-03-11T08:45:27;4.65;;;1.60;;
17369;SDS011;8802;52.402;4.920;2023-03-11T08:47:54;2.88;;;2.00;;
17369;SDS011;8802;52.402;4.920;2023-03-11T08:50:21;3.95;;;1.55;;
17369;SDS011;8802;52.402;4.920;2023-03-11T08:52:48;6.13;;;1.60;;
17369;SDS011;8802;52.402;4.920;2023-03-11T08:55:15;5.32;;;1.67;;
17369;SDS011;8802;52.402;4.920;2023-03-11T08:57:49;5.40;;;1.58;;
17369;SDS011;8802;52.402;4.920;2023-03-11T09:00:16;2.88;;;1.30;;
17369;SDS011;8802;52.402;4.920;2023-03-11T09:02:45;5.70;;;1.80;;
17369;SDS011;8802;52.402;4.920;2023-03-11T09:05:12;3.25;;;1.35;;
17369;SDS011;8802;52.402;4.920;2023-03-11T09:07:39;4.68;;;2.30;;
17369;SDS011;8802;52.402;4.920;2023-03-11T09:10:07;3.20;;;1.40;;
17369;SDS011;8802;52.402;4.920;2023-03-11T09:12:34;5.57;;;1.20;;
17369;SDS011;8802;52.402;4.920;2023-03-11T09:15:01;2.55;;;1.27;;
17369;SDS011;8802;52.402;4.920;2023-03-11T09:17:29;5.13;;;1.48;;
17369;SDS011;8802;52.402;4.920;2023-03-11T09:19:58;4.85;;;1.17;;
17369;SDS011;8802;52.402;4.920;2023-03-11T09:22:25;2.00;;;1.00;;
17369;SDS011;8802;52.402;4.920;2023-03-11T09:24:52;3.90;;;1.08;;
17369;SDS011;8802;52.402;4.920;2023-03-11T09:27:18;4.00;;;1.13;;
17369;SDS011;8802;52.402;4.920;2023-03-11T09:29:45;7.45;;;1.90;;
17369;SDS011;8802;52.402;4.920;2023-03-11T09:32:12;4.18;;;1.15;;
17369;SDS011;8802;52.402;4.920;2023-03-11T09:34:40;6.22;;;1.25;;
17369;SDS011;8802;52.402;4.920;2023-03-11T09:37:08;4.57;;;1.10;;
17369;SDS011;8802;52.402;4.920;2023-03-11T09:39:35;2.25;;;1.00;;
17369;SDS011;8802;52.402;4.920;2023-03-11T09:42:02;3.25;;;0.68;;
17369;SDS011;8802;52.402;4.920;2023-03-11T09:44:39;2.60;;;0.90;;
17369;SDS011;8802;52.402;4.920;2023-03-11T09:47:14;2.90;;;1.15;;
17369;SDS011;8802;52.402;4.920;2023-03-11T09:50:02;4.15;;;1.17;;
17369;SDS011;8802;52.402;4.920;2023-03-11T09:52:42;5.63;;;1.48;;
17369;SDS011;8802;52.402;4.920;2023-03-11T09:55:20;4.32;;;0.88;;
17369;SDS011;8802;52.402;4.920;2023-03-11T09:57:55;3.13;;;0.85;;
17369;SDS011;8802;52.402;4.920;2023-03-11T10:00:25;4.75;;;0.80;;
17369;SDS011;8802;52.402;4.920;2023-03-11T10:02:51;3.58;;;0.90;;
17369;SDS011;8802;52.402;4.920;2023-03-11T10:05:20;4.75;;;0.80;;
17369;SDS011;8802;52.402;4.920;2023-03-11T10:07:52;4.47;;;0.73;;
17369;SDS011;8802;52.402;4.920;2023-03-11T10:10:25;7.38;;;0.82;;
17369;SDS011;8802;52.402;4.920;2023-03-11T10:12:56;4.10;;;1.10;;
17369;SDS011;8802;52.402;4.920;2023-03-11T10:15:33;2.15;;;0.85;;
17369;SDS011;8802;52.402;4.920;2023-03-11T10:18:15;5.75;;;1.35;;
17369;SDS011;8802;52.402;4.920;2023-03-11T10:21:01;4.95;;;1.25;;
17369;SDS011;8802;52.402;4.920;2023-03-11T10:23:41;3.50;;;1.23;;
17369;SDS011;8802;52.402;4.920;2023-03-11T10:26:21;2.75;;;0.90;;
17369;SDS011;8802;52.402;4.920;2023-03-11T10:28:56;2.40;;;0.90;;
17369;SDS011;8802;52.402;4.920;2023-03-11T10:31:28;5.85;;;1.15;;
17369;SDS011;8802;52.402;4.920;2023-03-11T10:34:01;4.55;;;1.00;;
17369;SDS011;8802;52.402;4.920;2023-03-11T10:36:34;4.63;;;1.20;;
17369;SDS011;8802;52.402;4.920;2023-03-11T10:39:05;2.42;;;0.93;;
17369;SDS011;8802;52.402;4.920;2023-03-11T10:41:38;5.05;;;0.77;;
17369;SDS011;8802;52.402;4.920;2023-03-11T10:44:09;1.75;;;0.85;;
17369;SDS011;8802;52.402;4.920;2023-03-11T10:46:40;5.68;;;1.00;;
17369;SDS011;8802;52.402;4.920;2023-03-11T10:49:08;2.05;;;0.63;;
17369;SDS011;8802;52.402;4.920;2023-03-11T10:51:39;3.60;;;0.57;;
17369;SDS011;8802;52.402;4.920;2023-03-11T10:54:19;1.23;;;0.70;;
17369;SDS011;8802;52.402;4.920;2023-03-11T10:56:50;6.72;;;0.80;;
17369;SDS011;8802;52.402;4.920;2023-03-11T10:59:22;1.63;;;0.63;;
17369;SDS011;8802;52.402;4.920;2023-03-11T11:01:54;3.50;;;0.77;;
17369;SDS011;8802;52.402;4.920;2023-03-11T11:04:25;2.75;;;0.63;;
17369;SDS011;8802;52.402;4.920;2023-03-11T11:06:59;4.93;;;0.90;;
17369;SDS011;8802;52.402;4.920;2023-03-11T11:09:47;3.50;;;0.88;;
17369;SDS011;8802;52.402;4.920;2023-03-11T11:12:50;2.17;;;0.63;;
17369;SDS011;8802;52.402;4.920;2023-03-11T11:15:20;1.52;;;0.40;;
17369;SDS011;8802;52.402;4.920;2023-03-11T11:17:47;1.00;;;0.60;;
17369;SDS011;8802;52.402;4.920;2023-03-11T11:20:15;2.10;;;0.70;;
17369;SDS011;8802;52.402;4.920;2023-03-11T11:22:46;1.95;;;0.45;;
17369;SDS011;8802;52.402;4.920;2023-03-11T11:25:30;3.53;;;0.90;;
17369;SDS011;8802;52.402;4.920;2023-03-11T11:27:59;3.83;;;0.95;;
17369;SDS011;8802;52.402;4.920;2023-03-11T11:30:29;1.55;;;0.60;;
17369;SDS011;8802;52.402;4.920;2023-03-11T11:33:00;1.73;;;0.65;;
17369;SDS011;8802;52.402;4.920;2023-03-11T11:35:48;5.20;;;0.80;;
17369;SDS011;8802;52.402;4.920;2023-03-11T11:38:17;6.13;;;0.73;;
17369;SDS011;8802;52.402;4.920;2023-03-11T11:40:49;4.40;;;1.08;;
17369;SDS011;8802;52.402;4.920;2023-03-11T11:43:17;5.10;;;0.90;;
17369;SDS011;8802;52.402;4.920;2023-03-11T11:45:48;4.88;;;0.82;;
17369;SDS011;8802;52.402;4.920;2023-03-11T11:48:21;4.75;;;0.65;;
17369;SDS011;8802;52.402;4.920;2023-03-11T11:50:52;3.67;;;0.70;;
17369;SDS011;8802;52.402;4.920;2023-03-11T11:53:24;4.40;;;0.90;;
17369;SDS011;8802;52.402;4.920;2023-03-11T11:55:58;3.85;;;0.80;;
17369;SDS011;8802;52.402;4.920;2023-03-11T11:58:26;1.65;;;0.60;;
17369;SDS011;8802;52.402;4.920;2023-03-11T12:03:45;1.25;;;0.47;;
17369;SDS011;8802;52.402;4.920;2023-03-11T12:06:36;1.60;;;0.45;;
17369;SDS011;8802;52.402;4.920;2023-03-11T12:09:13;3.13;;;0.70;;
17369;SDS011;8802;52.402;4.920;2023-03-11T12:11:50;2.72;;;0.60;;
17369;SDS011;8802;52.402;4.920;2023-03-11T12:14:23;3.47;;;0.57;;
17369;SDS011;8802;52.402;4.920;2023-03-11T12:16:54;1.15;;;0.30;;
17369;SDS011;8802;52.402;4.920;2023-03-11T12:19:27;0.95;;;0.38;;
17369;SDS011;8802;52.402;4.920;2023-03-11T12:22:23;5.00;;;0.70;;
17369;SDS011;8802;52.402;4.920;2023-03-11T12:25:15;1.55;;;0.40;;
17369;SDS011;8802;52.402;4.920;2023-03-11T12:27:58;2.22;;;0.50;;
17369;SDS011;8802;52.402;4.920;2023-03-11T12:30:35;1.88;;;0.60;;
17369;SDS011;8802;52.402;4.920;2023-03-11T12:33:04;1.73;;;0.30;;
17369;SDS011;8802;52.402;4.920;2023-03-11T12:35:37;3.38;;;0.85;;
17369;SDS011;8802;52.402;4.920;2023-03-11T12:38:05;1.38;;;0.45;;
17369;SDS011;8802;52.402;4.920;2023-03-11T12:40:48;1.17;;;0.40;;
17369;SDS011;8802;52.402;4.920;2023-03-11T12:43:25;2.40;;;0.70;;
17369;SDS011;8802;52.402;4.920;2023-03-11T12:46:15;1.77;;;0.32;;
17369;SDS011;8802;52.402;4.920;2023-03-11T12:48:43;2.25;;;0.50;;
17369;SDS011;8802;52.402;4.920;2023-03-11T12:56:49;2.63;;;0.40;;
17369;SDS011;8802;52.402;4.920;2023-03-11T12:59:23;5.45;;;0.30;;
17369;SDS011;8802;52.402;4.920;2023-03-11T13:02:12;1.20;;;0.30;;
17369;SDS011;8802;52.402;4.920;2023-03-11T13:05:04;1.83;;;0.55;;
17369;SDS011;8802;52.402;4.920;2023-03-11T13:07:46;2.33;;;0.43;;
17369;SDS011;8802;52.402;4.920;2023-03-11T13:10:20;3.08;;;0.47;;
17369;SDS011;8802;52.402;4.920;2023-03-11T13:13:01;3.13;;;0.40;;
17369;SDS011;8802;52.402;4.920;2023-03-11T13:15:47;2.95;;;0.50;;
17369;SDS011;8802;52.402;4.920;2023-03-11T13:18:16;1.25;;;0.30;;
17369;SDS011;8802;52.402;4.920;2023-03-11T13:20:51;1.25;;;0.40;;
17369;SDS011;8802;52.402;4.920;2023-03-11T13:23:26;1.23;;;0.30;;
17369;SDS011;8802;52.402;4.920;2023-03-11T13:26:09;4.82;;;0.50;;
17369;SDS011;8802;52.402;4.920;2023-03-11T13:34:56;2.20;;;0.50;;
17369;SDS011;8802;52.402;4.920;2023-03-11T13:37:32;3.90;;;0.32;;
17369;SDS011;8802;52.402;4.920;2023-03-11T13:40:11;1.38;;;0.40;;
17369;SDS011;8802;52.402;4.920;2023-03-11T13:42:48;2.50;;;0.45;;
17369;SDS011;8802;52.402;4.920;2023-03-11T13:45:26;1.50;;;0.35;;
17369;SDS011;8802;52.402;4.920;2023-03-11T13:47:56;1.25;;;0.30;;
17369;SDS011;8802;52.402;4.920;2023-03-11T13:50:27;1.77;;;0.35;;
17369;SDS011;8802;52.402;4.920;2023-03-11T13:52:57;1.92;;;0.32;;
17369;SDS011;8802;52.402;4.920;2023-03-11T13:55:27;1.38;;;0.40;;
17369;SDS011;8802;52.402;4.920;2023-03-11T13:57:59;2.15;;;0.35;;
17369;SDS011;8802;52.402;4.920;2023-03-11T14:00:28;1.65;;;0.38;;
17369;SDS011;8802;52.402;4.920;2023-03-11T14:02:58;2.55;;;0.50;;
17369;SDS011;8802;52.402;4.920;2023-03-11T14:05:30;3.08;;;0.50;;
17369;SDS011;8802;52.402;4.920;2023-03-11T14:08:10;1.45;;;0.22;;
17369;SDS011;8802;52.402;4.920;2023-03-11T14:10:38;1.17;;;0.30;;
17369;SDS011;8802;52.402;4.920;2023-03-11T14:13:16;1.70;;;0.50;;
17369;SDS011;8802;52.402;4.920;2023-03-11T14:15:50;1.20;;;0.43;;
17369;SDS011;8802;52.402;4.920;2023-03-11T14:18:27;2.20;;;0.55;;
17369;SDS011;8802;52.402;4.920;2023-03-11T14:21:00;0.80;;;0.40;;
17369;SDS011;8802;52.402;4.920;2023-03-11T14:23:29;2.72;;;0.50;;
17369;SDS011;8802;52.402;4.920;2023-03-11T14:26:00;2.65;;;0.60;;
17369;SDS011;8802;52.402;4.920;2023-03-11T14:28:31;1.90;;;0.47;;
17369;SDS011;8802;52.402;4.920;2023-03-11T14:31:01;3.35;;;0.60;;
17369;SDS011;8802;52.402;4.920;2023-03-11T14:33:28;4.63;;;0.57;;
17369;SDS011;8802;52.402;4.920;2023-03-11T14:35:56;2.53;;;0.57;;
17369;SDS011;8802;52.402;4.920;2023-03-11T14:38:26;1.98;;;0.57;;
17369;SDS011;8802;52.402;4.920;2023-03-11T14:40:55;3.00;;;0.70;;
17369;SDS011;8802;52.402;4.920;2023-03-11T14:43:24;1.20;;;0.40;;
17369;SDS011;8802;52.402;4.920;2023-03-11T14:45:52;1.40;;;0.43;;
17369;SDS011;8802;52.402;4.920;2023-03-11T14:48:21;2.00;;;0.50;;
17369;SDS011;8802;52.402;4.920;2023-03-11T14:50:52;2.30;;;0.60;;
17369;SDS011;8802;52.402;4.920;2023-03-11T14:53:22;2.15;;;0.50;;
17369;SDS011;8802;52.402;4.920;2023-03-11T14:55:55;3.67;;;0.60;;
17369;SDS011;8802;52.402;4.920;2023-03-11T14:58:26;2.40;;;0.50;;
17369;SDS011;8802;52.402;4.920;2023-03-11T15:00:59;1.58;;;0.50;;
17369;SDS011;8802;52.402;4.920;2023-03-11T15:03:31;2.90;;;0.47;;
17369;SDS011;8802;52.402;4.920;2023-03-11T15:06:01;1.90;;;0.40;;
17369;SDS011;8802;52.402;4.920;2023-03-11T15:08:30;2.05;;;0.32;;
17369;SDS011;8802;52.402;4.920;2023-03-11T15:11:07;4.88;;;0.50;;
17369;SDS011;8802;52.402;4.920;2023-03-11T15:13:44;3.60;;;0.50;;
17369;SDS011;8802;52.402;4.920;2023-03-11T15:16:21;2.05;;;0.60;;
17369;SDS011;8802;52.402;4.920;2023-03-11T15:18:50;2.30;;;0.40;;
17369;SDS011;8802;52.402;4.920;2023-03-11T15:21:19;2.17;;;0.50;;
17369;SDS011;8802;52.402;4.920;2023-03-11T15:23:47;1.52;;;0.43;;
17369;SDS011;8802;52.402;4.920;2023-03-11T15:26:19;2.33;;;0.43;;
17369;SDS011;8802;52.402;4.920;2023-03-11T15:28:51;2.03;;;0.52;;
17369;SDS011;8802;52.402;4.920;2023-03-11T15:31:26;2.88;;;0.55;;
17369;SDS011;8802;52.402;4.920;2023-03-11T15:34:08;2.13;;;0.50;;
17369;SDS011;8802;52.402;4.920;2023-03-11T15:36:38;3.22;;;0.60;;
17369;SDS011;8802;52.402;4.920;2023-03-11T15:39:13;5.07;;;0.70;;